Time;durP1;ratioP1;P1;durP2;ratioP2;P2;SDS_P1;SDS_P2;PMS_P1;PMS_P2;Temp;Humidity;BMP_temperature;BMP_pressure;BME280_temperature;BME280_humidity;BME280_pressure;Samples;Min_cycle;Max_cycle;Signal;HPM_P1;HPM_P2
2023/04/11 00:01:48;;;;;;;6.37;3.57;;;;;;;12.30;75.62;98645.91;6124987;23;20166;-91
2023/04/11 00:04:19;;;;;;;10.27;5.20;;;;;;;12.38;74.51;98642.75;6125996;23;20149;-90
2023/04/11 00:06:45;;;;;;;7.17;4.00;;;;;;;12.34;74.27;98637.72;6126115;23;20143;-90
2023/04/11 00:09:11;;;;;;;7.03;3.97;;;;;;;12.24;74.81;98634.03;6126506;23;20164;-91
2023/04/11 00:11:38;;;;;;;7.43;4.03;;;;;;;12.27;74.71;98632.97;6127989;23;20537;-90
2023/04/11 00:14:04;;;;;;;8.10;4.60;;;;;;;12.31;74.27;98626.59;6127495;23;20184;-89
2023/04/11 00:16:38;;;;;;;9.90;5.47;;;;;;;12.33;74.26;98635.19;6126579;23;20462;-89
2023/04/11 00:19:06;;;;;;;7.10;4.30;;;;;;;12.32;74.03;98628.25;6151224;23;20583;-89
2023/04/11 00:21:34;;;;;;;9.07;4.50;;;;;;;12.34;74.42;98621.94;6127848;23;20206;-89
2023/04/11 00:24:00;;;;;;;14.53;5.23;;;;;;;12.40;74.33;98625.94;6127764;23;20167;-89
2023/04/11 00:26:28;;;;;;;8.37;4.73;;;;;;;12.40;74.08;98625.94;6127969;23;20592;-89
2023/04/11 00:28:55;;;;;;;10.83;5.67;;;;;;;12.43;73.80;98625.75;6127726;23;20175;-90
2023/04/11 00:31:21;;;;;;;11.20;5.47;;;;;;;12.48;73.93;98621.00;6128148;23;20151;-90
2023/04/11 00:33:46;;;;;;;9.03;5.13;;;;;;;12.51;73.71;98628.69;6127365;23;20183;-89
2023/04/11 00:36:12;;;;;;;10.17;5.13;;;;;;;12.51;73.74;98620.81;6127911;23;20147;-90
2023/04/11 00:38:38;;;;;;;8.93;4.93;;;;;;;12.50;73.53;98627.00;6127516;23;20647;-89
2023/04/11 00:41:04;;;;;;;8.90;4.70;;;;;;;12.40;73.93;98631.19;6126523;23;20581;-90
2023/04/11 00:43:34;;;;;;;8.20;4.90;;;;;;;12.37;73.88;98620.88;6150902;23;20222;-89
2023/04/11 00:46:02;;;;;;;8.17;4.37;;;;;;;12.38;73.84;98633.09;6150718;23;20152;-89
2023/04/11 00:48:27;;;;;;;10.37;5.03;;;;;;;12.36;74.35;98623.63;6127780;23;20148;-89
2023/04/11 00:50:55;;;;;;;8.47;4.40;;;;;;;12.38;74.17;98619.97;6127770;23;20148;-89
2023/04/11 00:53:21;;;;;;;7.37;3.90;;;;;;;12.41;74.68;98622.38;6126203;23;20517;-91
2023/04/11 00:55:47;;;;;;;7.00;3.70;;;;;;;12.48;74.40;98626.25;6129449;23;20197;-91
2023/04/11 00:58:15;;;;;;;8.83;4.17;;;;;;;12.43;74.50;98625.75;6125794;23;20183;-90
2023/04/11 01:00:43;;;;;;;9.90;4.87;;;;;;;12.44;74.28;98605.56;6099731;23;20159;-90
2023/04/11 01:03:08;;;;;;;8.23;4.63;;;;;;;12.46;74.26;98603.66;6125343;23;20207;-91
2023/04/11 01:05:39;;;;;;;8.73;4.23;;;;;;;12.47;73.95;98606.19;6126124;23;20161;-92
2023/04/11 01:08:08;;;;;;;8.43;4.70;;;;;;;12.42;74.07;98603.03;6126244;23;20187;-93
2023/04/11 01:10:35;;;;;;;9.30;4.33;;;;;;;12.23;74.34;98605.22;6100705;23;20236;-92
2023/04/11 01:13:04;;;;;;;8.70;4.60;;;;;;;12.06;75.62;98605.50;6127323;23;20176;-91
2023/04/11 01:15:31;;;;;;;7.17;4.27;;;;;;;12.00;76.47;98601.50;6127511;23;20158;-91
2023/04/11 01:18:00;;;;;;;10.40;5.53;;;;;;;11.93;76.78;98589.75;6127121;23;20147;-90
2023/04/11 01:20:33;;;;;;;8.90;4.40;;;;;;;11.90;77.08;98583.84;6127142;23;20153;-91
2023/04/11 01:23:01;;;;;;;8.17;4.37;;;;;;;12.05;76.03;98588.94;6127515;23;20132;-91
2023/04/11 01:25:27;;;;;;;9.23;4.93;;;;;;;12.06;75.89;98574.00;6127362;23;20153;-91
2023/04/11 01:27:52;;;;;;;9.80;6.30;;;;;;;12.01;76.17;98591.84;6127504;23;20152;-92
2023/04/11 01:30:19;;;;;;;10.83;4.87;;;;;;;12.02;76.04;98580.41;6102171;23;20239;-90
2023/04/11 01:32:49;;;;;;;8.10;4.30;;;;;;;11.95;76.09;98579.16;6127026;23;20190;-90
2023/04/11 01:35:16;;;;;;;11.63;4.80;;;;;;;11.91;76.33;98570.63;6101580;23;20197;-90
2023/04/11 01:37:43;;;;;;;10.10;5.23;;;;;;;11.93;76.33;98573.97;6101372;23;20167;-89
2023/04/11 01:40:16;;;;;;;9.87;4.80;;;;;;;11.84;76.73;98571.97;6126403;23;20148;-90
2023/04/11 01:42:44;;;;;;;11.10;4.90;;;;;;;11.81;76.57;98563.47;6127382;23;20146;-91
2023/04/11 01:45:20;;;;;;;9.00;5.07;;;;;;;11.79;76.43;98565.34;6127817;23;20214;-92
2023/04/11 01:47:47;;;;;;;11.07;5.47;;;;;;;11.84;76.45;98569.34;6101586;23;20278;-90
2023/04/11 01:50:12;;;;;;;10.63;4.87;;;;;;;11.83;76.32;98572.06;6126220;23;20162;-89
2023/04/11 01:52:38;;;;;;;11.70;5.50;;;;;;;11.69;76.25;98565.09;6100805;23;20242;-91
2023/04/11 01:55:04;;;;;;;11.30;5.50;;;;;;;11.62;76.70;98569.91;6112896;23;20176;-92
2023/04/11 01:57:29;;;;;;;14.13;5.10;;;;;;;11.63;77.42;98565.50;6127621;23;20611;-92
2023/04/11 01:59:56;;;;;;;10.27;5.90;;;;;;;11.57;76.88;98566.72;6127029;23;20155;-91
2023/04/11 02:02:24;;;;;;;13.13;6.50;;;;;;;11.51;77.50;98576.78;6127352;23;20591;-91
2023/04/11 02:04:50;;;;;;;11.43;6.50;;;;;;;11.39;77.88;98564.47;6127018;23;20148;-92
2023/04/11 02:07:19;;;;;;;13.27;6.37;;;;;;;11.30;78.05;98562.41;6126993;23;20222;-92
2023/04/11 02:09:46;;;;;;;11.43;6.00;;;;;;;11.39;77.72;98549.56;6150777;23;20222;-90
2023/04/11 02:12:45;;;;;;;;;;;;;;;;;;;;;
2023/04/11 02:21:56;;;;;;;10.23;5.67;;;;;;;11.59;77.15;98537.75;6116528;23;20230;-92
2023/04/11 02:24:46;;;;;;;13.90;6.97;;;;;;;11.43;78.00;98537.06;6127224;23;20156;-93
2023/04/11 02:27:40;;;;;;;13.33;6.60;;;;;;;11.37;77.80;98543.56;6124929;23;20156;-93
2023/04/11 02:30:42;;;;;;;13.50;6.63;;;;;;;11.25;78.73;98540.88;6120413;23;20164;-93
2023/04/11 02:33:28;;;;;;;12.30;6.53;;;;;;;11.22;79.12;98534.06;6038710;23;20618;-93
2023/04/11 02:36:18;;;;;;;14.90;7.13;;;;;;;11.17;80.08;98530.03;6063765;23;20170;-93
2023/04/11 02:38:46;;;;;;;15.53;6.60;;;;;;;11.33;78.85;98518.47;6125878;23;20226;-92
2023/04/11 02:41:16;;;;;;;14.67;6.73;;;;;;;11.25;78.75;98520.75;6126253;23;20491;-93
2023/04/11 02:43:42;;;;;;;12.97;6.87;;;;;;;11.31;79.14;98512.50;6127134;23;20472;-93
2023/04/11 02:46:20;;;;;;;14.37;7.00;;;;;;;11.20;79.55;98509.72;6125936;23;20167;-93
2023/04/11 02:49:26;;;;;;;14.27;6.90;;;;;;;11.18;79.91;98501.13;6127001;23;20144;-92
2023/04/11 02:52:18;;;;;;;13.40;7.70;;;;;;;11.22;79.96;98494.72;6122129;23;20299;-91
2023/04/11 02:55:40;;;;;;;17.93;8.23;;;;;;;11.01;81.10;98488.25;6127203;23;20334;-92
2023/04/11 02:58:37;;;;;;;17.47;7.17;;;;;;;11.08;80.74;98484.28;6126465;23;20158;-93
2023/04/11 03:04:20;;;;;;;15.23;6.73;;;;;;;10.88;81.85;98476.84;5935370;23;20162;-94
2023/04/11 03:06:55;;;;;;;17.43;7.80;;;;;;;10.97;81.67;98481.53;6100642;23;20171;-91
2023/04/11 03:09:40;;;;;;;15.70;8.30;;;;;;;10.81;82.64;98480.81;6101064;23;20596;-93
2023/04/11 03:12:10;;;;;;;17.57;8.67;;;;;;;10.76;82.84;98485.50;6101277;23;20152;-92
2023/04/11 03:14:37;;;;;;;14.33;7.13;;;;;;;10.86;82.21;98479.59;6100813;23;20192;-91
2023/04/11 03:17:04;;;;;;;15.80;8.10;;;;;;;11.07;81.50;98487.84;6101559;23;20167;-90
2023/04/11 03:19:30;;;;;;;14.87;7.63;;;;;;;11.04;81.01;98488.88;6126350;23;20155;-91
2023/04/11 03:21:57;;;;;;;14.17;7.13;;;;;;;11.10;80.60;98498.16;6100701;23;20155;-91
2023/04/11 03:24:22;;;;;;;15.03;7.80;;;;;;;10.95;80.71;98488.66;6125937;23;20155;-91
2023/04/11 03:26:48;;;;;;;14.47;7.27;;;;;;;10.92;81.29;98494.94;6100699;23;20293;-91
2023/04/11 03:29:13;;;;;;;14.47;7.53;;;;;;;11.00;81.37;98499.69;6100705;23;20588;-91
2023/04/11 03:31:40;;;;;;;17.80;8.97;;;;;;;10.93;81.04;98498.38;6100736;23;20160;-92
2023/04/11 03:34:13;;;;;;;14.63;7.20;;;;;;;10.82;82.13;98487.75;6126385;23;20172;-92
2023/04/11 03:36:40;;;;;;;16.00;8.10;;;;;;;11.08;81.08;98498.22;6101113;23;20171;-92
2023/04/11 03:43:34;;;;;;;16.90;7.13;;;;;;;10.65;81.80;98498.44;5997184;23;20605;-92
2023/04/11 03:49:18;;;;;;;13.13;6.87;;;;;;;10.55;83.58;98495.56;6008665;23;20303;-92
2023/04/11 03:52:10;;;;;;;15.30;7.27;;;;;;;10.59;84.34;98481.31;5985798;23;20219;-92
2023/04/11 04:53:25;;;;;;;8.03;4.20;;;;;;;11.05;79.31;98474.00;6153629;23;20242;-92
2023/04/11 05:11:04;;;;;;;9.77;5.40;;;;;;;11.33;79.33;98467.78;6098154;23;20225;-90
2023/04/11 05:21:06;;;;;;;;;;;;;;;;;;;;;
2023/04/11 05:37:08;;;;;;;8.47;4.23;;;;;;;11.15;81.26;98448.00;5903087;23;20239;-90
2023/04/11 05:40:24;;;;;;;;;;;;;;;;;;;;;
2023/04/11 05:54:09;;;;;;;6.73;3.53;;;;;;;11.07;82.05;98432.78;6097491;23;20541;-91
2023/04/11 06:08:12;;;;;;;;;;;;;;;;;;;;;
2023/04/11 06:11:29;;;;;;;9.07;4.37;;;;;;;11.07;82.09;98427.53;6134654;23;20249;-92
2023/04/11 06:17:52;;;;;;;8.57;4.43;;;;;;;11.15;82.06;98417.38;6095402;23;20171;-90
2023/04/11 06:27:56;;;;;;;;;;;;;;;;;;;;;
2023/04/11 06:30:56;;;;;;;9.17;4.00;;;;;;;11.30;82.97;98412.88;6183506;23;20259;-90
2023/04/11 06:34:09;;;;;;;7.97;4.60;;;;;;;11.51;82.31;98414.91;6158975;23;20179;-90
2023/04/11 07:35:56;;;;;;;10.43;5.53;;;;;;;12.27;82.37;98412.25;6128270;23;20215;-91
2023/04/11 07:41:15;;;;;;;11.73;6.37;;;;;;;12.21;82.33;98412.72;6085256;23;20543;-92
2023/04/11 07:43:40;;;;;;;10.47;5.90;;;;;;;12.46;81.43;98407.38;6100717;23;20605;-91
2023/04/11 07:46:07;;;;;;;11.67;6.37;;;;;;;12.30;81.91;98393.66;6118185;23;20475;-90
2023/04/11 07:48:32;;;;;;;10.90;5.93;;;;;;;12.29;82.06;98402.47;6123870;23;20155;-91
2023/04/11 07:50:59;;;;;;;8.47;4.87;;;;;;;12.33;82.97;98406.56;6099858;23;20645;-93
2023/04/11 07:53:29;;;;;;;10.40;5.87;;;;;;;12.42;82.61;98398.00;6100548;23;20219;-91
2023/04/11 07:56:00;;;;;;;12.47;6.37;;;;;;;12.25;81.91;98406.28;6125486;23;20162;-94
2023/04/11 07:58:27;;;;;;;10.27;5.50;;;;;;;12.41;82.41;98406.88;6099914;23;20142;-91
2023/04/11 08:00:55;;;;;;;10.07;5.83;;;;;;;12.50;81.95;98403.56;6125362;23;20216;-93
2023/04/11 08:03:22;;;;;;;9.30;5.83;;;;;;;12.65;79.22;98391.97;6099584;23;20159;-89
2023/04/11 08:05:55;;;;;;;11.03;5.67;;;;;;;12.70;80.69;98387.22;6099644;23;20165;-89
2023/04/11 08:08:25;;;;;;;10.83;6.20;;;;;;;12.75;80.47;98386.88;6125172;23;20140;-90
2023/04/11 08:10:52;;;;;;;8.50;5.07;;;;;;;12.62;80.13;98389.56;6122757;23;20166;-88
2023/04/11 08:13:22;;;;;;;13.67;6.33;;;;;;;12.58;78.14;98393.34;6124723;23;20530;-88
2023/04/11 08:15:55;;;;;;;11.67;6.23;;;;;;;12.65;78.56;98373.56;6125731;23;20161;-90
2023/04/11 08:18:22;;;;;;;9.70;5.90;;;;;;;12.97;77.48;98365.09;6125608;23;20166;-87
2023/04/11 08:20:50;;;;;;;11.17;6.17;;;;;;;13.08;77.86;98370.41;6125309;23;20210;-89
2023/04/11 08:23:18;;;;;;;10.13;5.70;;;;;;;12.87;77.55;98362.28;6126277;23;20155;-87
2023/04/11 08:25:45;;;;;;;11.30;5.83;;;;;;;12.97;77.45;98351.94;6125147;23;20597;-87
2023/04/11 08:28:12;;;;;;;14.70;6.33;;;;;;;12.95;77.84;98344.97;6125818;23;20160;-90
2023/04/11 08:30:38;;;;;;;10.67;5.80;;;;;;;12.85;78.26;98344.00;6126788;23;20193;-86
2023/04/11 08:33:06;;;;;;;11.50;6.73;;;;;;;12.95;79.14;98325.72;6102189;23;20193;-85
2023/04/11 08:35:32;;;;;;;12.70;6.10;;;;;;;12.83;78.88;98329.28;6128021;23;20214;-87
2023/04/11 08:37:59;;;;;;;10.87;5.63;;;;;;;12.79;78.81;98333.09;6127395;23;20238;-87
2023/04/11 08:40:27;;;;;;;12.90;6.93;;;;;;;12.85;78.24;98337.91;6127056;23;20148;-85
2023/04/11 08:43:12;;;;;;;13.73;7.50;;;;;;;12.84;79.94;98316.00;6101748;23;20163;-85
2023/04/11 08:45:40;;;;;;;12.70;6.93;;;;;;;12.99;80.32;98313.19;6126942;23;20210;-87
2023/04/11 08:48:08;;;;;;;13.27;7.50;;;;;;;13.09;79.35;98311.56;6126877;23;20152;-87
2023/04/11 08:50:34;;;;;;;11.37;6.27;;;;;;;13.16;78.87;98316.25;6127346;23;20163;-87
2023/04/11 08:53:07;;;;;;;15.33;7.43;;;;;;;13.59;77.96;98308.53;6127388;23;20197;-86
2023/04/11 08:55:34;;;;;;;13.27;6.47;;;;;;;13.55;75.48;98302.66;6127087;23;20155;-86
2023/04/11 08:58:01;;;;;;;14.37;7.47;;;;;;;13.41;76.25;98310.81;6127039;23;20152;-87
2023/04/11 09:00:28;;;;;;;14.63;7.00;;;;;;;13.39;76.92;98304.00;6126649;23;20395;-87
2023/04/11 09:03:05;;;;;;;14.77;7.03;;;;;;;13.59;74.93;98300.63;6102055;23;20156;-86
2023/04/11 09:05:37;;;;;;;14.63;7.57;;;;;;;13.89;74.07;98282.41;6101542;23;20151;-86
2023/04/11 09:08:09;;;;;;;15.70;8.23;;;;;;;13.92;72.96;98294.50;6101567;23;20576;-86
2023/04/11 09:10:40;;;;;;;12.17;6.73;;;;;;;13.90;70.09;98281.47;6127235;23;20140;-87
2023/04/11 09:13:20;;;;;;;12.87;6.70;;;;;;;14.11;71.54;98277.09;6126148;23;20569;-86
2023/04/11 09:16:01;;;;;;;10.30;6.13;;;;;;;13.97;68.99;98276.53;6126611;23;20186;-85
2023/04/11 09:18:36;;;;;;;11.57;6.73;;;;;;;13.84;68.65;98279.31;6127726;23;20144;-85
2023/04/11 09:21:09;;;;;;;11.57;5.50;;;;;;;13.90;67.65;98284.09;6127258;23;20533;-87
2023/04/11 09:23:36;;;;;;;11.23;6.50;;;;;;;14.02;67.00;98285.75;6126248;23;20638;-86
2023/04/11 09:26:04;;;;;;;12.37;6.73;;;;;;;13.64;67.00;98276.56;6101063;23;20155;-86
2023/04/11 09:28:52;;;;;;;14.73;7.77;;;;;;;13.91;65.73;98269.13;6126888;23;20185;-86
2023/04/11 09:31:17;;;;;;;12.17;7.17;;;;;;;13.87;67.10;98259.78;6127931;23;20136;-89
2023/04/11 09:33:57;;;;;;;12.27;7.07;;;;;;;13.69;67.00;98262.09;6126219;23;20187;-87
2023/04/11 09:36:25;;;;;;;15.03;7.23;;;;;;;14.06;67.43;98260.00;6101425;23;20152;-88
2023/04/11 09:38:52;;;;;;;14.93;7.43;;;;;;;13.95;66.02;98260.84;6126564;23;20155;-89
2023/04/11 09:41:32;;;;;;;14.07;7.50;;;;;;;14.22;64.61;98259.59;6125828;23;20153;-90
2023/04/11 09:43:58;;;;;;;11.97;7.00;;;;;;;14.57;63.82;98255.75;6127603;23;20180;-91
2023/04/11 09:46:24;;;;;;;12.97;6.20;;;;;;;14.68;62.31;98252.22;6126584;23;20590;-90
2023/04/11 09:48:50;;;;;;;17.63;7.80;;;;;;;14.57;62.37;98250.50;6127470;23;20148;-89
2023/04/11 09:51:17;;;;;;;11.00;6.60;;;;;;;14.64;60.34;98248.19;6127177;23;20154;-89
2023/04/11 09:53:43;;;;;;;11.80;7.23;;;;;;;14.56;61.08;98237.44;6101102;23;20204;-91
2023/04/11 09:56:09;;;;;;;11.37;6.20;;;;;;;14.52;59.88;98244.75;6127842;23;20225;-90
2023/04/11 09:58:36;;;;;;;10.37;6.43;;;;;;;14.34;61.89;98229.63;6126844;23;20152;-89
2023/04/11 10:01:06;;;;;;;11.13;6.77;;;;;;;14.53;62.22;98233.25;6126750;23;20155;-89
2023/04/11 10:03:35;;;;;;;12.67;7.33;;;;;;;14.65;61.29;98234.88;6127421;23;20233;-91
2023/04/11 10:06:11;;;;;;;11.53;6.23;;;;;;;14.68;61.24;98233.78;6127031;23;20239;-90
2023/04/11 10:08:38;;;;;;;14.60;6.73;;;;;;;14.70;58.95;98239.78;6127050;23;20134;-88
2023/04/11 10:11:06;;;;;;;14.27;7.27;;;;;;;14.76;60.34;98240.09;6126999;23;20158;-90
2023/04/11 10:13:45;;;;;;;11.57;6.13;;;;;;;14.85;61.03;98232.38;6126838;23;20665;-90
2023/04/11 10:16:19;;;;;;;13.40;6.93;;;;;;;15.43;61.29;98230.88;6101233;23;20223;-89
2023/04/11 10:18:53;;;;;;;11.57;6.70;;;;;;;15.51;58.58;98220.53;6126743;23;20139;-89
2023/04/11 10:21:36;;;;;;;12.33;6.90;;;;;;;15.80;58.79;98216.16;6127145;23;20165;-90
2023/04/11 10:24:11;;;;;;;9.80;6.03;;;;;;;15.69;54.23;98218.91;6101222;23;20519;-90
2023/04/11 10:26:50;;;;;;;10.53;6.07;;;;;;;15.48;52.31;98208.41;6100376;23;20700;-91
2023/04/11 10:32:16;;;;;;;11.57;6.33;;;;;;;15.51;54.42;98205.53;6127512;23;20555;-90
2023/04/11 10:34:50;;;;;;;13.37;6.33;;;;;;;15.43;54.36;98205.31;6126564;23;20269;-88
2023/04/11 10:37:36;;;;;;;9.57;5.93;;;;;;;15.51;55.70;98199.38;6101074;23;20217;-88
2023/04/11 10:40:08;;;;;;;9.27;5.30;;;;;;;15.67;54.92;98194.44;6126212;23;20166;-88
2023/04/11 10:42:41;;;;;;;14.23;7.07;;;;;;;15.50;54.58;98198.56;6127379;23;20143;-90
2023/04/11 10:45:29;;;;;;;10.60;5.53;;;;;;;15.86;53.38;98194.47;6126708;23;20523;-90
2023/04/11 10:47:57;;;;;;;12.80;6.43;;;;;;;15.69;51.45;98187.22;6127403;23;20166;-90
2023/04/11 10:50:25;;;;;;;10.03;5.80;;;;;;;15.86;50.63;98181.25;6126596;23;20161;-89
2023/04/11 10:52:58;;;;;;;11.17;5.83;;;;;;;15.89;51.93;98184.47;6100628;23;20209;-89
2023/04/11 10:55:26;;;;;;;11.00;6.17;;;;;;;15.90;52.56;98180.03;6101145;23;20226;-90
2023/04/11 10:58:08;;;;;;;9.70;5.63;;;;;;;16.30;52.06;98166.69;6100945;23;20167;-90
2023/04/11 11:00:58;;;;;;;10.00;6.10;;;;;;;16.49;50.86;98164.00;6126197;23;20234;-90
2023/04/11 11:03:28;;;;;;;9.80;6.13;;;;;;;16.41;51.07;98164.72;6113284;23;20166;-90
2023/04/11 11:06:01;;;;;;;9.47;5.07;;;;;;;16.40;50.63;98152.47;6101305;23;20153;-91
2023/04/11 11:08:29;;;;;;;13.70;6.47;;;;;;;16.22;50.80;98153.34;6127336;23;20136;-89
2023/04/11 11:11:00;;;;;;;10.60;6.10;;;;;;;16.07;50.43;98150.25;6125767;23;20539;-90
2023/04/11 11:13:39;;;;;;;11.07;5.80;;;;;;;15.96;51.20;98153.88;6126243;23;20192;-89
2023/04/11 11:16:06;;;;;;;13.47;6.93;;;;;;;16.11;50.19;98143.72;6100491;23;20462;-90
2023/04/11 11:18:32;;;;;;;21.37;6.87;;;;;;;16.16;51.32;98132.72;6126352;23;20201;-91
2023/04/11 11:20:57;;;;;;;13.70;5.83;;;;;;;16.21;50.86;98131.34;6100750;23;20602;-90
2023/04/11 11:23:23;;;;;;;9.97;5.87;;;;;;;15.94;52.23;98120.63;6101119;23;20244;-90
2023/04/11 11:25:55;;;;;;;11.87;5.50;;;;;;;15.58;50.98;98126.56;6100856;23;20558;-90
2023/04/11 11:28:21;;;;;;;12.87;7.10;;;;;;;15.89;52.69;98114.91;6126570;23;20179;-91
2023/04/11 11:30:56;;;;;;;11.17;6.33;;;;;;;15.87;50.81;98128.28;6100899;23;20154;-91
2023/04/11 11:33:25;;;;;;;9.27;5.57;;;;;;;15.76;51.81;98124.91;6101557;23;20190;-90
2023/04/11 11:35:54;;;;;;;10.00;5.73;;;;;;;15.90;51.69;98121.88;6127209;23;20174;-89
2023/04/11 11:38:21;;;;;;;10.80;5.03;;;;;;;15.97;50.33;98123.00;6156020;23;20165;-89
2023/04/11 11:40:48;;;;;;;11.27;5.50;;;;;;;16.03;49.66;98127.72;6130200;23;20214;-90
2023/04/11 11:43:15;;;;;;;12.20;6.20;;;;;;;16.12;48.79;98121.59;6155709;23;20154;-90
2023/04/11 11:45:41;;;;;;;10.30;5.47;;;;;;;16.25;50.73;98116.84;6129584;23;20527;-89
2023/04/11 11:48:07;;;;;;;11.67;5.93;;;;;;;16.28;49.69;98124.50;6155501;23;20169;-90
2023/04/11 11:50:32;;;;;;;7.80;5.10;;;;;;;16.29;50.04;98120.91;6155581;23;20149;-90
2023/04/11 11:53:11;;;;;;;13.37;6.03;;;;;;;16.41;50.79;98114.47;6129285;23;20500;-89
2023/04/11 11:55:37;;;;;;;8.17;4.93;;;;;;;16.63;49.60;98117.81;6155236;23;20135;-90
2023/04/11 11:58:04;;;;;;;9.20;4.20;;;;;;;16.49;46.28;98111.94;6128447;23;20649;-90
2023/04/11 12:00:36;;;;;;;6.80;4.43;;;;;;;16.36;44.15;98116.69;6130228;23;20216;-91
2023/04/11 12:03:02;;;;;;;7.53;4.40;;;;;;;16.33;44.37;98101.13;6130495;23;20157;-89
2023/04/11 12:05:30;;;;;;;7.47;4.17;;;;;;;16.51;44.92;98107.34;6130618;23;20161;-90
2023/04/11 12:08:03;;;;;;;7.20;4.20;;;;;;;16.72;45.43;98103.72;6126917;23;20154;-89
2023/04/11 12:10:40;;;;;;;7.63;4.27;;;;;;;16.99;45.78;98098.44;6106719;23;20297;-89
2023/04/11 12:13:21;;;;;;;6.73;3.77;;;;;;;16.98;44.84;98088.88;6156606;23;20258;-90
2023/04/11 12:15:56;;;;;;;6.23;3.90;;;;;;;17.12;46.23;98077.78;6156887;23;20142;-90
2023/04/11 12:18:27;;;;;;;6.90;3.60;;;;;;;17.12;43.46;98080.41;6155687;23;20147;-90
2023/04/11 12:20:54;;;;;;;6.43;3.70;;;;;;;17.05;40.70;98084.63;6132030;23;20170;-90
2023/04/11 12:23:23;;;;;;;5.30;3.10;;;;;;;16.97;40.49;98071.31;6157316;23;20150;-90
2023/04/11 12:25:49;;;;;;;5.70;3.07;;;;;;;17.09;40.82;98075.41;6102084;23;20163;-90
2023/04/11 12:28:16;;;;;;;5.23;3.07;;;;;;;16.99;39.58;98071.97;6156807;23;20205;-90
2023/04/11 12:30:43;;;;;;;6.73;3.30;;;;;;;16.95;39.66;98067.97;6130914;23;20173;-91
2023/04/11 12:33:09;;;;;;;4.93;3.03;;;;;;;17.11;39.13;98068.19;6130790;23;20194;-90
2023/04/11 12:35:36;;;;;;;6.57;3.17;;;;;;;17.17;40.42;98067.56;6136263;23;20530;-90
2023/04/11 12:38:03;;;;;;;5.80;2.70;;;;;;;17.09;39.87;98067.47;6125872;23;20587;-90
2023/04/11 12:40:28;;;;;;;6.83;3.07;;;;;;;17.17;41.83;98062.28;6126904;23;20156;-90
2023/04/11 12:42:55;;;;;;;7.73;3.50;;;;;;;17.40;42.89;98066.16;6101637;23;20488;-90
2023/04/11 12:45:22;;;;;;;6.13;3.10;;;;;;;17.55;41.56;98056.78;6102754;23;20179;-90
2023/04/11 12:47:49;;;;;;;5.83;3.20;;;;;;;17.57;41.88;98054.81;6127667;23;20227;-90
2023/04/11 12:50:15;;;;;;;6.27;3.27;;;;;;;17.64;41.17;98055.88;6126975;23;20231;-90
2023/04/11 12:52:42;;;;;;;5.43;3.40;;;;;;;17.42;42.51;98051.00;6127704;23;20148;-91
2023/04/11 12:55:09;;;;;;;6.80;3.20;;;;;;;17.16;41.59;98052.69;6127941;23;20184;-90
2023/04/11 12:57:35;;;;;;;9.77;3.57;;;;;;;16.73;39.14;98058.59;6127806;23;20162;-90
2023/04/11 13:00:05;;;;;;;5.63;3.07;;;;;;;16.97;40.49;98050.13;6128072;23;20152;-90
2023/04/11 13:02:32;;;;;;;5.43;2.77;;;;;;;17.03;39.77;98054.84;6101805;23;20143;-92
2023/04/11 13:05:05;;;;;;;6.83;4.37;;;;;;;16.67;40.14;98047.72;6101480;23;20159;-91
2023/04/11 13:07:33;;;;;;;10.07;5.53;;;;;;;16.65;40.80;98049.69;6101980;23;20652;-92
2023/04/11 13:10:06;;;;;;;6.27;2.90;;;;;;;16.67;40.46;98037.97;6102038;23;20156;-90
2023/04/11 13:12:38;;;;;;;7.27;4.47;;;;;;;16.73;41.12;98037.41;6102158;23;20579;-91
2023/04/11 13:15:06;;;;;;;7.53;3.77;;;;;;;16.69;40.25;98035.22;6127662;23;20180;-92
2023/04/11 13:17:33;;;;;;;6.70;4.00;;;;;;;16.83;42.05;98032.06;6101571;23;20156;-91
2023/04/11 13:20:00;;;;;;;5.83;3.40;;;;;;;16.87;42.01;98036.94;6099460;23;20163;-90
2023/04/11 13:22:27;;;;;;;8.33;3.77;;;;;;;16.83;42.10;98040.00;6126752;23;20152;-91
2023/04/11 13:24:54;;;;;;;6.17;3.17;;;;;;;16.37;40.49;98031.13;6127084;23;20150;-91
2023/04/11 13:27:21;;;;;;;13.77;7.40;;;;;;;16.20;40.25;98052.97;6100898;23;20662;-91
2023/04/11 13:29:48;;;;;;;15.43;10.63;;;;;;;16.08;42.32;98043.56;6127341;23;20595;-91
2023/04/11 13:32:14;;;;;;;7.17;3.60;;;;;;;16.18;40.85;98041.72;6127215;23;20147;-92
2023/04/11 13:34:41;;;;;;;10.30;7.63;;;;;;;16.15;42.90;98046.44;6126436;23;20194;-91
2023/04/11 13:37:06;;;;;;;6.37;2.63;;;;;;;16.30;43.23;98039.75;6127228;23;20156;-91
2023/04/11 13:39:32;;;;;;;6.17;3.30;;;;;;;16.44;42.84;98045.41;6126680;23;20578;-91
2023/04/11 13:41:58;;;;;;;15.43;4.80;;;;;;;16.37;43.73;98048.78;6127013;23;20162;-92
2023/04/11 13:44:25;;;;;;;7.83;4.07;;;;;;;16.03;44.67;98043.16;6101994;23;20177;-93
2023/04/11 13:46:51;;;;;;;6.80;2.77;;;;;;;15.80;44.35;98049.69;6101690;23;20165;-91
2023/04/11 13:49:18;;;;;;;6.67;3.70;;;;;;;15.74;45.21;98044.97;6100634;23;20164;-91
2023/04/11 13:51:45;;;;;;;7.03;3.40;;;;;;;15.57;43.10;98033.28;6098809;23;20154;-92
2023/04/11 13:54:11;;;;;;;5.03;2.40;;;;;;;15.34;42.74;98032.69;6101062;23;20192;-93
2023/04/11 13:56:37;;;;;;;6.87;3.53;;;;;;;15.58;43.33;98034.13;6101016;23;20221;-91
2023/04/11 13:59:04;;;;;;;6.00;3.30;;;;;;;15.84;42.93;98030.78;6127036;23;20230;-92
2023/04/11 14:01:30;;;;;;;5.70;2.83;;;;;;;15.82;42.53;98034.53;6101517;23;20154;-92
2023/04/11 14:03:55;;;;;;;5.13;3.07;;;;;;;15.74;43.68;98037.88;6127130;23;20221;-90
2023/04/11 14:06:21;;;;;;;5.87;3.00;;;;;;;15.78;44.12;98023.41;6101499;23;20224;-90
2023/04/11 14:08:46;;;;;;;5.43;3.03;;;;;;;15.76;43.90;98037.72;6101391;23;20157;-91
2023/04/11 14:11:12;;;;;;;6.07;3.17;;;;;;;15.81;44.66;98043.44;6126872;23;20229;-91
2023/04/11 14:13:37;;;;;;;6.57;3.20;;;;;;;15.93;46.79;98037.03;6101616;23;20188;-90
2023/04/11 14:16:03;;;;;;;7.17;3.00;;;;;;;15.78;45.43;98031.34;6101261;23;20161;-91
2023/04/11 14:18:28;;;;;;;5.50;3.23;;;;;;;15.48;46.23;98041.19;6127564;23;20161;-90
2023/04/11 14:20:57;;;;;;;5.67;3.07;;;;;;;15.41;47.12;98034.78;6101398;23;20188;-91
2023/04/11 14:23:22;;;;;;;7.70;4.13;;;;;;;15.30;48.47;98030.47;6127253;23;20148;-93
2023/04/11 14:25:48;;;;;;;7.33;3.80;;;;;;;15.09;47.97;98030.56;6126942;23;20194;-91
2023/04/11 14:28:15;;;;;;;6.40;3.70;;;;;;;14.93;49.69;98030.25;6100857;23;20494;-92
2023/04/11 14:30:41;;;;;;;6.27;3.20;;;;;;;14.86;49.01;98028.28;6101087;23;20624;-89
2023/04/11 14:33:06;;;;;;;5.70;3.20;;;;;;;14.89;50.59;98036.72;6126614;23;20153;-92
2023/04/11 14:35:32;;;;;;;5.90;3.33;;;;;;;14.96;50.45;98029.97;6126545;23;20196;-91
2023/04/11 14:37:57;;;;;;;6.83;3.03;;;;;;;15.16;51.24;98022.91;6101046;23;20163;-89
2023/04/11 14:40:23;;;;;;;5.50;2.83;;;;;;;15.08;48.88;98033.31;6127048;23;20578;-92
2023/04/11 14:42:48;;;;;;;6.23;2.80;;;;;;;15.11;51.20;98009.31;6101448;23;20166;-90
2023/04/11 14:45:14;;;;;;;5.63;2.93;;;;;;;15.20;52.08;98004.03;6100882;23;20540;-92
2023/04/11 14:47:39;;;;;;;5.80;3.03;;;;;;;15.00;50.68;98010.25;6126607;23;20159;-91
2023/04/11 14:50:06;;;;;;;8.93;3.57;;;;;;;14.78;50.57;98007.81;6100698;23;20163;-93
2023/04/11 14:52:32;;;;;;;6.93;3.43;;;;;;;14.72;51.72;98011.00;6101025;23;20170;-92
2023/04/11 14:54:57;;;;;;;6.70;3.03;;;;;;;15.07;49.94;97999.97;6100960;23;20183;-91
2023/04/11 14:57:23;;;;;;;4.97;3.00;;;;;;;15.01;50.52;98009.28;6126381;23;20157;-92
2023/04/11 14:59:48;;;;;;;7.37;3.17;;;;;;;14.64;48.59;97998.50;6126870;23;20228;-93
2023/04/11 15:02:14;;;;;;;12.80;3.23;;;;;;;14.47;49.04;98028.09;6101840;23;20157;-93
2023/04/11 15:04:40;;;;;;;4.77;2.67;;;;;;;14.20;50.58;98024.34;6102025;23;20632;-91
2023/04/11 15:07:05;;;;;;;5.10;2.70;;;;;;;14.06;51.66;98017.59;6101946;23;20185;-94
2023/04/11 15:09:32;;;;;;;4.77;2.50;;;;;;;14.09;51.70;98012.06;6101626;23;20583;-91
2023/04/11 15:11:57;;;;;;;5.40;2.97;;;;;;;14.07;52.98;97996.38;6127686;23;20228;-95
2023/04/11 15:14:28;;;;;;;5.33;2.93;;;;;;;13.99;50.42;97990.09;6099804;23;20628;-92
2023/04/11 15:16:54;;;;;;;4.90;2.73;;;;;;;13.89;52.05;97990.00;6101645;23;20556;-93
2023/04/11 15:19:20;;;;;;;5.57;3.20;;;;;;;13.78;53.77;97981.38;6100631;23;20160;-93
2023/04/11 15:21:45;;;;;;;5.63;2.80;;;;;;;13.84;53.73;97981.66;6101007;23;20602;-94
2023/04/11 15:24:10;;;;;;;5.47;3.00;;;;;;;13.90;54.91;97973.25;6100786;23;20164;-92